createdAt,value
2023-03-18T00:00:25.479Z,82.10
2023-03-18T00:02:53.482Z,82.00
2023-03-18T00:05:21.428Z,81.80
2023-03-18T00:07:50.228Z,81.70
2023-03-18T00:10:18.870Z,81.60
2023-03-18T00:12:46.690Z,80.70
2023-03-18T00:15:18.141Z,80.50
2023-03-18T00:17:48.446Z,80.10
2023-03-18T00:20:18.337Z,81.00
2023-03-18T00:22:46.728Z,79.60
2023-03-18T00:25:15.694Z,79.60
2023-03-18T00:27:43.472Z,79.60
2023-03-18T00:30:12.862Z,79.90
2023-03-18T00:32:41.353Z,80.00
2023-03-18T00:35:12.079Z,79.80
2023-03-18T00:37:39.797Z,80.10
2023-03-18T00:40:10.850Z,80.00
2023-03-18T00:42:47.243Z,81.00
2023-03-18T00:45:17.016Z,79.80
2023-03-18T00:47:44.916Z,80.10
2023-03-18T00:50:14.681Z,79.70
2023-03-18T00:52:42.549Z,79.50
2023-03-18T00:55:11.374Z,78.10
2023-03-18T00:57:39.166Z,78.80
2023-03-18T01:00:08.466Z,78.10
2023-03-18T01:02:36.248Z,78.80
2023-03-18T01:05:04.403Z,77.80
2023-03-18T01:07:33.472Z,77.40
2023-03-18T01:10:01.168Z,77.50
2023-03-18T01:12:28.912Z,77.20
2023-03-18T01:14:56.743Z,77.00
2023-03-18T01:17:24.529Z,77.90
2023-03-18T01:19:52.553Z,77.80
2023-03-18T01:22:20.465Z,78.40
2023-03-18T01:24:49.915Z,78.10
2023-03-18T01:27:18.385Z,78.50
2023-03-18T01:29:46.617Z,78.70
2023-03-18T01:32:14.418Z,76.90
2023-03-18T01:34:42.201Z,76.80
2023-03-18T01:37:10.031Z,76.50
2023-03-18T01:39:37.824Z,76.60
2023-03-18T01:42:07.223Z,76.10
2023-03-18T01:44:35.223Z,76.00
2023-03-18T01:47:03.035Z,76.10
2023-03-18T01:49:36.377Z,75.90
2023-03-18T01:52:06.645Z,75.40
2023-03-18T01:54:39.618Z,75.50
2023-03-18T01:57:08.960Z,75.50
2023-03-18T01:59:42.086Z,75.30
2023-03-18T02:02:11.905Z,75.10
2023-03-18T02:04:42.223Z,75.30
2023-03-18T02:07:16.025Z,75.50
2023-03-18T02:09:44.330Z,74.70
2023-03-18T02:12:15.793Z,76.50
2023-03-18T02:14:43.940Z,78.20
2023-03-18T02:17:16.688Z,80.30
2023-03-18T02:19:56.105Z,81.90
2023-03-18T02:22:29.173Z,82.20
2023-03-18T02:25:12.769Z,79.70
2023-03-18T02:27:44.861Z,78.30
2023-03-18T02:30:17.431Z,78.20
2023-03-18T02:32:48.228Z,78.30
2023-03-18T02:35:16.117Z,77.70
2023-03-18T02:37:44.154Z,77.70
2023-03-18T02:40:16.917Z,78.00
2023-03-18T02:42:47.615Z,77.80
2023-03-18T02:45:31.972Z,78.50
2023-03-18T02:48:03.494Z,79.60
2023-03-18T02:50:31.567Z,78.90
2023-03-18T02:53:00.851Z,79.00
2023-03-18T02:55:29.233Z,79.50
2023-03-18T02:57:58.361Z,80.60
2023-03-18T03:00:26.393Z,80.30
2023-03-18T03:02:54.261Z,80.40
2023-03-18T03:05:22.133Z,80.40
2023-03-18T03:07:49.921Z,80.20
2023-03-18T03:10:17.951Z,79.40
2023-03-18T03:12:46.045Z,80.20
2023-03-18T03:15:15.206Z,79.60
2023-03-18T03:17:42.960Z,79.20
2023-03-18T03:20:12.069Z,79.30
2023-03-18T03:22:39.787Z,78.70
2023-03-18T03:25:08.815Z,78.90
2023-03-18T03:27:37.911Z,79.60
2023-03-18T03:30:07.566Z,79.30
2023-03-18T03:32:37.087Z,79.30
2023-03-18T03:35:07.744Z,79.40
2023-03-18T03:37:35.894Z,78.90
2023-03-18T03:40:06.103Z,79.90
2023-03-18T03:42:33.884Z,79.80
2023-03-18T03:45:01.837Z,80.20
2023-03-18T03:47:29.673Z,79.40
2023-03-18T03:49:58.877Z,79.20
2023-03-18T03:52:26.976Z,79.30
2023-03-18T03:54:56.058Z,79.20
2023-03-18T03:57:24.618Z,79.20
2023-03-18T03:59:52.353Z,78.90
2023-03-18T04:02:21.387Z,78.70
2023-03-18T04:04:49.110Z,78.80
2023-03-18T04:07:18.257Z,79.00
2023-03-18T04:09:46.660Z,78.50
2023-03-18T04:12:15.181Z,78.10
2023-03-18T04:14:43.200Z,77.70
2023-03-18T04:17:11.453Z,76.80
2023-03-18T04:19:39.388Z,76.10
2023-03-18T04:22:07.199Z,75.20
2023-03-18T04:24:36.514Z,74.80
2023-03-18T04:27:04.253Z,74.20
2023-03-18T04:29:32.241Z,73.60
2023-03-18T04:31:59.939Z,73.20
2023-03-18T04:34:27.866Z,73.00
2023-03-18T04:36:56.190Z,72.50
2023-03-18T04:39:24.004Z,72.10
2023-03-18T04:41:54.550Z,71.70
2023-03-18T04:44:22.230Z,71.50
2023-03-18T04:46:50.002Z,71.10
2023-03-18T04:49:17.914Z,71.10
2023-03-18T04:51:45.812Z,71.90
2023-03-18T04:54:13.676Z,71.30
2023-03-18T04:56:41.572Z,71.90
2023-03-18T04:59:10.892Z,71.60
2023-03-18T05:01:38.588Z,71.80
2023-03-18T05:04:08.216Z,71.90
2023-03-18T05:06:37.273Z,71.50
2023-03-18T05:09:05.825Z,71.30
2023-03-18T05:11:34.003Z,72.10
2023-03-18T05:14:01.851Z,71.20
2023-03-18T05:16:31.046Z,71.30
2023-03-18T05:18:58.807Z,71.30
2023-03-18T05:21:27.129Z,70.80
2023-03-18T05:23:56.022Z,70.40
2023-03-18T05:26:24.635Z,69.90
2023-03-18T05:28:52.497Z,70.50
2023-03-18T05:31:20.806Z,70.60
2023-03-18T05:33:49.896Z,70.30
2023-03-18T05:36:17.575Z,70.50
2023-03-18T05:38:45.290Z,70.40
2023-03-18T05:41:12.968Z,70.00
2023-03-18T05:43:40.752Z,69.80
2023-03-18T05:46:08.562Z,69.30
2023-03-18T05:48:36.705Z,69.80
2023-03-18T05:51:06.794Z,69.90
2023-03-18T05:53:34.831Z,69.90
2023-03-18T05:56:02.547Z,69.30
2023-03-18T05:58:31.299Z,69.40
2023-03-18T06:01:00.106Z,70.30
2023-03-18T06:03:27.979Z,69.40
2023-03-18T06:05:55.670Z,68.80
2023-03-18T06:08:25.228Z,69.20
2023-03-18T06:10:53.006Z,68.70
2023-03-18T06:13:21.559Z,68.60
2023-03-18T06:15:49.277Z,68.30
2023-03-18T06:18:17.032Z,68.30
2023-03-18T06:20:44.827Z,68.00
2023-03-18T06:23:13.372Z,67.60
2023-03-18T06:25:43.118Z,67.10
2023-03-18T06:28:10.807Z,66.30
2023-03-18T06:30:38.548Z,65.80
2023-03-18T06:33:06.331Z,65.60
2023-03-18T06:35:34.419Z,65.20
2023-03-18T06:38:02.675Z,65.30
2023-03-18T06:40:30.480Z,64.90
2023-03-18T06:42:59.584Z,65.00
2023-03-18T06:45:28.274Z,65.70
2023-03-18T06:47:56.480Z,65.50
2023-03-18T06:50:24.493Z,65.60
2023-03-18T06:52:52.269Z,64.60
2023-03-18T06:55:20.106Z,64.50
2023-03-18T06:57:47.983Z,64.50
2023-03-18T07:00:18.492Z,65.00
2023-03-18T07:02:46.751Z,66.20
2023-03-18T07:05:14.756Z,65.60
2023-03-18T07:07:42.552Z,65.80
2023-03-18T07:10:16.990Z,65.20
2023-03-18T07:12:44.703Z,65.00
2023-03-18T07:15:13.281Z,63.80
2023-03-18T07:17:42.954Z,63.10
2023-03-18T07:20:12.263Z,62.50
2023-03-18T07:22:40.034Z,60.40
2023-03-18T07:25:08.677Z,57.60
2023-03-18T07:27:36.612Z,54.30
2023-03-18T07:30:05.334Z,51.70
2023-03-18T07:32:33.289Z,49.60
2023-03-18T07:35:02.970Z,47.40
2023-03-18T07:37:30.814Z,46.10
2023-03-18T07:39:58.577Z,45.30
2023-03-18T07:42:26.348Z,44.90
2023-03-18T07:44:55.105Z,43.70
2023-03-18T07:47:24.895Z,42.90
2023-03-18T07:49:52.750Z,42.10
2023-03-18T07:52:21.842Z,41.80
2023-03-18T07:54:49.567Z,41.40
2023-03-18T07:57:17.407Z,40.40
2023-03-18T07:59:45.313Z,39.10
2023-03-18T08:02:15.797Z,38.30
2023-03-18T08:04:46.655Z,38.90
2023-03-18T08:07:14.572Z,38.90
2023-03-18T08:09:43.637Z,38.30
2023-03-18T08:12:11.699Z,38.30
2023-03-18T08:14:39.715Z,37.80
2023-03-18T08:17:07.490Z,37.50
2023-03-18T08:19:35.607Z,37.60
2023-03-18T08:22:03.397Z,37.20
2023-03-18T08:24:31.241Z,36.40
2023-03-18T08:27:00.428Z,36.70
2023-03-18T08:29:28.222Z,36.20
2023-03-18T08:31:57.059Z,37.30
2023-03-18T08:34:25.004Z,36.10
2023-03-18T08:36:53.083Z,36.90
2023-03-18T08:39:21.962Z,36.20
2023-03-18T08:41:49.736Z,36.00
2023-03-18T08:44:18.928Z,36.10
2023-03-18T08:46:46.742Z,35.80
2023-03-18T08:49:14.973Z,35.70
2023-03-18T08:51:42.933Z,35.30
2023-03-18T08:54:10.643Z,35.60
2023-03-18T08:56:38.328Z,35.50
2023-03-18T08:59:06.975Z,34.20
2023-03-18T09:01:38.485Z,33.00
2023-03-18T09:04:08.354Z,33.40
2023-03-18T09:06:38.115Z,33.50
2023-03-18T09:09:07.972Z,32.50
2023-03-18T09:11:37.779Z,31.40
2023-03-18T09:14:07.350Z,30.70
2023-03-18T09:16:38.718Z,30.50
2023-03-18T09:19:08.651Z,30.00
2023-03-18T09:21:38.397Z,30.50
2023-03-18T09:24:08.537Z,31.10
2023-03-18T09:26:39.310Z,30.80
2023-03-18T09:29:08.961Z,30.60
2023-03-18T09:31:40.862Z,31.00
2023-03-18T09:34:13.946Z,29.80
2023-03-18T09:36:51.519Z,29.60
2023-03-18T09:39:21.633Z,29.40
2023-03-18T09:42:03.400Z,29.00
2023-03-18T09:44:35.511Z,29.40
2023-03-18T09:47:19.161Z,29.90
2023-03-18T09:50:04.353Z,29.90
2023-03-18T09:52:37.872Z,29.20
2023-03-18T09:55:14.230Z,28.80
2023-03-18T09:57:46.299Z,29.60
2023-03-18T10:00:24.274Z,30.00
2023-03-18T10:02:58.984Z,31.10
2023-03-18T10:05:32.535Z,30.60
2023-03-18T10:08:05.687Z,31.00
2023-03-18T10:10:40.019Z,31.40
2023-03-18T10:13:17.241Z,32.00
2023-03-18T10:15:49.173Z,31.30
2023-03-18T10:18:26.406Z,30.60
2023-03-18T10:21:04.870Z,30.50
2023-03-18T10:23:42.730Z,31.50
2023-03-18T10:26:17.325Z,31.40
2023-03-18T10:28:56.363Z,31.00
2023-03-18T10:31:33.365Z,31.30
2023-03-18T10:34:06.468Z,31.00
2023-03-18T10:36:40.205Z,30.00
2023-03-18T10:39:15.832Z,30.50
2023-03-18T10:41:49.870Z,31.50
2023-03-18T10:44:21.594Z,32.50
2023-03-18T10:46:57.148Z,33.30
2023-03-18T10:49:31.267Z,33.50
2023-03-18T10:52:02.819Z,33.30
2023-03-18T10:54:36.633Z,33.20
2023-03-18T10:57:04.648Z,33.80
2023-03-18T10:59:32.613Z,33.70
2023-03-18T11:02:04.766Z,33.70
2023-03-18T11:04:42.221Z,32.50
2023-03-18T11:07:18.714Z,32.20
2023-03-18T11:09:47.307Z,31.70
2023-03-18T11:12:19.316Z,31.90
2023-03-18T11:14:49.301Z,32.20
2023-03-18T11:17:23.635Z,32.40
2023-03-18T11:20:05.648Z,30.70
2023-03-18T11:22:34.520Z,30.10
2023-03-18T11:25:06.040Z,29.70
2023-03-18T11:27:40.156Z,29.30
2023-03-18T11:30:33.125Z,29.30
2023-03-18T11:33:16.441Z,29.50
2023-03-18T11:35:52.041Z,29.80
2023-03-18T11:38:27.149Z,29.50
2023-03-18T11:40:55.646Z,29.70
2023-03-18T11:43:25.557Z,29.60
2023-03-18T11:45:58.275Z,29.00
2023-03-18T11:48:32.436Z,28.80
2023-03-18T11:51:19.537Z,28.70
2023-03-18T11:53:58.007Z,28.30
2023-03-18T11:56:34.021Z,28.70
2023-03-18T11:59:18.537Z,28.30
2023-03-18T12:01:56.781Z,29.00
2023-03-18T12:04:48.709Z,29.50
2023-03-18T12:07:41.394Z,29.80
2023-03-18T12:10:20.039Z,29.80
2023-03-18T12:13:01.835Z,29.80
2023-03-18T12:15:39.930Z,29.70
2023-03-18T12:18:17.908Z,30.50
2023-03-18T12:20:53.458Z,30.60
2023-03-18T12:23:45.251Z,30.80
2023-03-18T12:26:18.767Z,31.00
2023-03-18T12:29:11.634Z,31.70
2023-03-18T12:31:52.807Z,32.40
2023-03-18T12:34:33.246Z,33.00
2023-03-18T12:37:15.362Z,33.30
2023-03-18T12:40:24.075Z,33.20
2023-03-18T12:43:04.695Z,33.60
2023-03-18T12:45:37.505Z,33.80
2023-03-18T12:48:11.104Z,33.80
2023-03-18T12:50:43.067Z,34.20
2023-03-18T12:53:16.606Z,34.40
2023-03-18T12:55:49.245Z,34.10
2023-03-18T12:58:20.256Z,35.30
2023-03-18T13:00:54.172Z,34.30
2023-03-18T13:03:33.855Z,33.80
2023-03-18T13:06:05.040Z,34.20
2023-03-18T13:08:49.033Z,34.90
2023-03-18T13:11:32.552Z,35.30
2023-03-18T13:14:05.045Z,35.40
2023-03-18T13:16:36.128Z,35.20
2023-03-18T13:19:04.824Z,35.30
2023-03-18T13:21:37.328Z,35.00
2023-03-18T13:24:17.137Z,34.40
2023-03-18T13:27:15.347Z,34.60
2023-03-18T13:29:47.827Z,35.00
2023-03-18T13:32:30.871Z,34.30
2023-03-18T13:35:22.988Z,34.20
2023-03-18T13:38:17.287Z,34.00
2023-03-18T13:41:12.064Z,34.00
2023-03-18T13:43:42.490Z,34.50
2023-03-18T13:46:20.144Z,33.80
2023-03-18T13:48:48.382Z,33.60
2023-03-18T13:51:21.736Z,33.30
2023-03-18T13:53:51.296Z,33.10
2023-03-18T13:56:29.942Z,33.20
2023-03-18T13:59:05.746Z,33.30
2023-03-18T14:01:35.568Z,32.90
2023-03-18T14:04:21.315Z,32.90
2023-03-18T14:06:57.304Z,32.90
2023-03-18T14:09:47.213Z,33.50
2023-03-18T14:12:23.891Z,33.80
2023-03-18T14:15:09.300Z,34.30
2023-03-18T14:17:47.591Z,35.10
2023-03-18T14:20:37.620Z,36.10
2023-03-18T14:23:30.047Z,35.90
2023-03-18T14:26:05.849Z,36.40
2023-03-18T14:28:42.981Z,35.70
2023-03-18T14:31:32.309Z,36.00
2023-03-18T14:34:04.261Z,36.60
2023-03-18T14:37:04.309Z,36.80
2023-03-18T14:39:37.102Z,37.10
2023-03-18T14:42:11.032Z,37.20
2023-03-18T14:44:46.032Z,37.20
2023-03-18T14:47:31.947Z,36.90
2023-03-18T14:50:14.309Z,36.80
2023-03-18T14:52:45.650Z,36.90
2023-03-18T14:55:20.634Z,37.00
2023-03-18T14:57:48.680Z,37.10
2023-03-18T15:00:18.722Z,37.20
2023-03-18T15:02:52.549Z,37.40
2023-03-18T15:05:22.787Z,37.70
2023-03-18T15:07:54.066Z,36.80
2023-03-18T15:10:25.130Z,35.90
2023-03-18T15:13:01.957Z,35.80
2023-03-18T15:15:29.853Z,35.10
2023-03-18T15:18:03.053Z,35.10
2023-03-18T15:20:35.371Z,35.50
2023-03-18T15:23:06.484Z,35.30
2023-03-18T15:25:34.799Z,35.30
2023-03-18T15:28:04.280Z,34.70
2023-03-18T15:30:34.193Z,34.00
2023-03-18T15:33:09.578Z,34.30
2023-03-18T15:35:39.470Z,34.60
2023-03-18T15:38:15.461Z,35.00
2023-03-18T15:40:51.708Z,35.00
2023-03-18T15:43:30.679Z,35.30
2023-03-18T15:46:00.451Z,35.30
2023-03-18T15:48:36.611Z,35.90
2023-03-18T15:51:06.891Z,36.40
2023-03-18T15:53:42.432Z,36.30
2023-03-18T15:56:19.654Z,36.00
2023-03-18T15:58:57.720Z,36.20
2023-03-18T16:01:25.652Z,35.90
2023-03-18T16:03:54.852Z,36.10
2023-03-18T16:06:23.467Z,36.40
2023-03-18T16:08:51.326Z,36.40
2023-03-18T16:11:19.479Z,35.90
2023-03-18T16:13:47.250Z,36.20
2023-03-18T16:16:22.875Z,35.80
2023-03-18T16:18:50.610Z,35.80
2023-03-18T16:21:20.639Z,36.40
2023-03-18T16:23:48.831Z,36.40
2023-03-18T16:26:18.601Z,36.30
2023-03-18T16:28:48.635Z,37.10
2023-03-18T16:31:16.559Z,38.10
2023-03-18T16:33:46.236Z,38.10
2023-03-18T16:36:26.538Z,38.80
2023-03-18T16:38:54.352Z,39.30
2023-03-18T16:41:22.197Z,39.60
2023-03-18T16:43:50.191Z,40.00
2023-03-18T16:46:19.241Z,39.40
2023-03-18T16:48:50.360Z,39.80
2023-03-18T16:51:18.971Z,40.20
2023-03-18T16:53:48.572Z,40.20
2023-03-18T16:56:18.879Z,39.80
2023-03-18T16:58:47.057Z,40.30
2023-03-18T17:01:17.100Z,39.70
2023-03-18T17:03:45.508Z,39.90
2023-03-18T17:06:14.717Z,39.70
2023-03-18T17:08:42.534Z,39.70
2023-03-18T17:11:18.029Z,39.60
2023-03-18T17:13:46.660Z,40.10
2023-03-18T17:16:18.642Z,40.20
2023-03-18T17:18:46.400Z,40.20
2023-03-18T17:21:14.194Z,40.60
2023-03-18T17:23:42.687Z,40.60
2023-03-18T17:26:14.893Z,41.10
2023-03-18T17:28:44.838Z,40.70
2023-03-18T17:31:13.453Z,41.50
2023-03-18T17:33:41.346Z,41.30
2023-03-18T17:36:09.701Z,41.60
2023-03-18T17:38:37.470Z,41.60
2023-03-18T17:41:13.270Z,42.10
2023-03-18T17:43:42.530Z,42.50
2023-03-18T17:46:10.303Z,42.50
2023-03-18T17:48:40.898Z,42.90
2023-03-18T17:51:14.710Z,43.60
2023-03-18T17:53:44.841Z,44.10
2023-03-18T17:56:14.942Z,44.40
2023-03-18T17:58:45.854Z,44.80
2023-03-18T18:01:16.328Z,44.60
2023-03-18T18:03:44.535Z,44.20
2023-03-18T18:06:17.864Z,44.00
2023-03-18T18:08:46.910Z,44.00
2023-03-18T18:11:20.475Z,43.70
2023-03-18T18:13:51.366Z,43.70
2023-03-18T18:16:19.858Z,43.70
2023-03-18T18:18:50.050Z,45.30
2023-03-18T18:21:21.226Z,46.60
2023-03-18T18:23:49.090Z,46.90
2023-03-18T18:26:19.513Z,48.00
2023-03-18T18:28:50.247Z,46.50
2023-03-18T18:31:20.565Z,46.30
2023-03-18T18:33:50.368Z,45.90
2023-03-18T18:36:18.882Z,46.20
2023-03-18T18:38:46.907Z,46.40
2023-03-18T18:41:15.165Z,45.80
2023-03-18T18:43:42.886Z,46.30
2023-03-18T18:46:14.777Z,46.70
2023-03-18T18:48:44.638Z,47.10
2023-03-18T18:51:16.794Z,47.70
2023-03-18T18:53:44.543Z,48.50
2023-03-18T18:56:18.734Z,48.60
2023-03-18T18:58:47.155Z,48.90
2023-03-18T19:01:16.364Z,49.00
2023-03-18T19:03:44.283Z,48.90
2023-03-18T19:06:24.654Z,49.10
2023-03-18T19:08:53.075Z,49.50
2023-03-18T19:11:20.911Z,49.90
2023-03-18T19:13:48.881Z,49.30
2023-03-18T19:16:28.132Z,49.60
2023-03-18T19:18:56.183Z,51.20
2023-03-18T19:21:24.512Z,51.80
2023-03-18T19:23:52.364Z,52.30
2023-03-18T19:26:21.368Z,52.00
2023-03-18T19:28:59.063Z,51.80
2023-03-18T19:31:32.116Z,51.60
2023-03-18T19:34:00.442Z,51.60
2023-03-18T19:36:30.750Z,51.20
2023-03-18T19:39:00.219Z,50.70
2023-03-18T19:41:28.563Z,50.80
2023-03-18T19:43:59.593Z,50.70
2023-03-18T19:46:36.861Z,50.90
2023-03-18T19:49:04.696Z,51.50
2023-03-18T19:51:32.576Z,51.70
2023-03-18T19:54:01.017Z,52.00
2023-03-18T19:56:31.130Z,52.00
2023-03-18T19:58:59.903Z,52.70
2023-03-18T20:01:29.265Z,53.30
2023-03-18T20:03:59.022Z,53.70
2023-03-18T20:06:27.528Z,52.90
2023-03-18T20:08:55.571Z,52.60
2023-03-18T20:11:23.731Z,51.70
2023-03-18T20:13:52.136Z,51.30
2023-03-18T20:16:25.884Z,51.30
2023-03-18T20:18:55.096Z,51.00
2023-03-18T20:21:27.928Z,51.00
2023-03-18T20:24:00.502Z,50.80
2023-03-18T20:26:28.450Z,50.90
2023-03-18T20:28:58.372Z,51.00
2023-03-18T20:31:26.274Z,51.00
2023-03-18T20:33:55.915Z,51.10
2023-03-18T20:36:23.761Z,51.10
2023-03-18T20:38:52.253Z,51.40
2023-03-18T20:41:21.738Z,51.80
2023-03-18T20:43:50.154Z,52.60
2023-03-18T20:46:18.761Z,52.50
2023-03-18T20:48:49.197Z,52.40
2023-03-18T20:51:27.681Z,52.90
2023-03-18T20:53:55.455Z,53.70
2023-03-18T20:56:23.444Z,53.70
2023-03-18T20:58:51.558Z,54.10
2023-03-18T21:01:19.934Z,53.80
2023-03-18T21:03:47.871Z,53.10
2023-03-18T21:06:18.517Z,52.40
2023-03-18T21:08:47.586Z,52.70
2023-03-18T21:11:22.684Z,52.80
2023-03-18T21:13:50.948Z,52.70
2023-03-18T21:16:19.925Z,53.40
2023-03-18T21:18:49.458Z,53.60
2023-03-18T21:21:23.177Z,53.80
2023-03-18T21:23:53.337Z,54.10
2023-03-18T21:26:21.747Z,53.60
2023-03-18T21:28:49.659Z,54.90
2023-03-18T21:31:26.304Z,55.90
2023-03-18T21:33:55.176Z,56.70
2023-03-18T21:36:23.338Z,57.10
2023-03-18T21:38:52.711Z,56.70
2023-03-18T21:41:22.279Z,56.20
2023-03-18T21:43:51.032Z,54.90
2023-03-18T21:46:21.220Z,54.90
2023-03-18T21:48:49.370Z,55.50
2023-03-18T21:51:37.529Z,56.10
2023-03-18T21:54:17.500Z,55.90
2023-03-18T21:56:45.325Z,56.50
2023-03-18T21:59:13.032Z,57.00
2023-03-18T22:01:40.891Z,57.00
2023-03-18T22:04:08.757Z,57.30
2023-03-18T22:06:37.158Z,57.40
2023-03-18T22:09:05.566Z,57.40
2023-03-18T22:11:34.681Z,58.10
2023-03-18T22:14:02.545Z,59.40
2023-03-18T22:16:30.488Z,59.50
2023-03-18T22:18:58.272Z,59.40
2023-03-18T22:21:28.272Z,59.50
2023-03-18T22:23:58.047Z,59.70
2023-03-18T22:26:25.909Z,60.10
2023-03-18T22:28:55.117Z,60.00
2023-03-18T22:31:25.233Z,61.00
2023-03-18T22:33:53.368Z,61.80
2023-03-18T22:36:22.480Z,62.30
2023-03-18T22:38:50.755Z,62.50
2023-03-18T22:41:21.981Z,63.30
2023-03-18T22:43:50.723Z,64.20
2023-03-18T22:46:19.841Z,63.70
2023-03-18T22:48:47.612Z,64.10
2023-03-18T22:51:23.345Z,63.90
2023-03-18T22:53:53.106Z,64.20
2023-03-18T22:56:21.948Z,64.50
2023-03-18T22:58:49.826Z,64.70
2023-03-18T23:01:20.439Z,65.60
2023-03-18T23:03:48.894Z,65.10
2023-03-18T23:06:19.785Z,65.40
2023-03-18T23:08:47.858Z,65.60
2023-03-18T23:11:16.448Z,65.40
2023-03-18T23:13:46.154Z,66.10
2023-03-18T23:16:16.788Z,66.10
2023-03-18T23:18:46.315Z,66.20
2023-03-18T23:21:17.112Z,65.90
2023-03-18T23:23:44.984Z,66.40
2023-03-18T23:26:13.009Z,66.70
2023-03-18T23:28:44.969Z,66.40
2023-03-18T23:31:13.446Z,66.00
2023-03-18T23:33:41.313Z,65.70
2023-03-18T23:36:11.056Z,65.60
2023-03-18T23:38:38.886Z,65.60
2023-03-18T23:41:07.131Z,65.10
2023-03-18T23:43:34.964Z,64.40
2023-03-18T23:46:03.671Z,64.10
2023-03-18T23:48:31.803Z,63.50
2023-03-18T23:50:59.585Z,63.20
2023-03-18T23:53:28.697Z,62.30
2023-03-18T23:55:56.653Z,61.90
2023-03-18T23:58:24.366Z,62.70
